createdAt,value
2019-03-25T00:01:06.042Z,37.93
2019-03-25T00:03:35.706Z,38.57
2019-03-25T00:06:05.403Z,38.50
2019-03-25T00:08:35.077Z,38.00
2019-03-25T00:11:04.743Z,38.70
2019-03-25T00:13:35.120Z,38.67
2019-03-25T00:16:05.167Z,38.97
2019-03-25T00:18:36.080Z,38.80
2019-03-25T00:21:05.771Z,38.47
2019-03-25T00:23:37.940Z,39.73
2019-03-25T00:26:09.221Z,38.67
2019-03-25T00:28:38.925Z,38.40
2019-03-25T00:31:08.587Z,38.60
2019-03-25T00:33:38.270Z,39.90
2019-03-25T00:36:08.071Z,38.37
2019-03-25T00:38:37.731Z,37.73
2019-03-25T00:41:07.396Z,38.17
2019-03-25T00:43:37.242Z,38.70
2019-03-25T00:46:06.902Z,38.30
2019-03-25T00:48:36.577Z,38.70
2019-03-25T00:51:06.255Z,38.30
2019-03-25T00:53:35.963Z,38.77
2019-03-25T00:56:05.622Z,38.53
2019-03-25T00:58:35.301Z,37.83
2019-03-25T01:01:04.980Z,38.87
2019-03-25T01:03:34.724Z,38.60
2019-03-25T01:06:05.242Z,38.67
2019-03-25T01:08:34.959Z,37.97
2019-03-25T01:11:04.631Z,38.00
2019-03-25T01:13:34.322Z,38.20
2019-03-25T01:16:04.052Z,38.27
2019-03-25T01:18:33.729Z,38.00
2019-03-25T01:21:03.401Z,39.03
2019-03-25T01:23:33.119Z,39.13
2019-03-25T01:26:02.853Z,39.10
2019-03-25T01:28:32.916Z,38.23
2019-03-25T01:31:02.571Z,38.67
2019-03-25T01:33:32.234Z,38.77
2019-03-25T01:36:01.913Z,38.67
2019-03-25T01:38:31.557Z,38.40
2019-03-25T01:41:01.213Z,37.50
2019-03-25T01:43:30.933Z,37.73
2019-03-25T01:46:01.259Z,38.77
2019-03-25T01:48:30.924Z,38.23
2019-03-25T01:51:00.621Z,37.67
2019-03-25T01:53:30.294Z,38.13
2019-03-25T01:55:59.966Z,38.07
2019-03-25T01:58:29.648Z,38.27
2019-03-25T02:01:03.032Z,38.07
2019-03-25T02:03:32.693Z,38.57
2019-03-25T02:06:02.454Z,37.27
2019-03-25T02:08:32.125Z,38.23
2019-03-25T02:11:01.844Z,38.27
2019-03-25T02:13:31.539Z,38.00
2019-03-25T02:16:02.392Z,37.07
2019-03-25T02:18:34.203Z,37.07
2019-03-25T02:21:05.593Z,38.13
2019-03-25T02:23:35.245Z,37.80
2019-03-25T02:26:04.892Z,38.03
2019-03-25T02:28:34.640Z,38.40
2019-03-25T02:31:04.307Z,37.90
2019-03-25T02:33:33.962Z,38.30
2019-03-25T02:36:03.640Z,38.47
2019-03-25T02:38:33.304Z,38.37
2019-03-25T02:41:03.023Z,37.77
2019-03-25T02:43:32.838Z,38.47
2019-03-25T02:46:03.999Z,37.83
2019-03-25T02:48:33.683Z,37.70
2019-03-25T02:51:03.370Z,37.60
2019-03-25T02:53:33.018Z,37.33
2019-03-25T02:56:03.258Z,38.13
2019-03-25T02:58:33.000Z,37.70
2019-03-25T03:01:02.661Z,37.77
2019-03-25T03:03:32.338Z,37.87
2019-03-25T03:06:01.924Z,38.10
2019-03-25T03:08:31.579Z,37.70
2019-03-25T03:11:01.226Z,37.40
2019-03-25T03:13:30.945Z,38.40
2019-03-25T03:16:02.024Z,37.00
2019-03-25T03:18:33.463Z,36.97
2019-03-25T03:21:03.144Z,37.13
2019-03-25T03:23:32.815Z,38.33
2019-03-25T03:26:03.417Z,36.73
2019-03-25T03:28:33.072Z,38.17
2019-03-25T03:31:02.722Z,37.13
2019-03-25T03:33:32.381Z,37.20
2019-03-25T03:36:02.059Z,36.83
2019-03-25T03:38:31.712Z,36.77
2019-03-25T03:41:02.073Z,37.13
2019-03-25T03:43:31.757Z,37.37
2019-03-25T03:46:01.402Z,36.73
2019-03-25T03:48:31.073Z,36.67
2019-03-25T03:51:01.175Z,37.13
2019-03-25T03:53:30.802Z,37.13
2019-03-25T03:56:13.085Z,37.37
2019-03-25T03:58:35.464Z,37.30
2019-03-25T04:01:05.119Z,37.80
2019-03-25T04:03:34.933Z,37.73
2019-03-25T04:06:04.618Z,37.43
2019-03-25T04:08:34.308Z,37.40
2019-03-25T04:11:03.942Z,36.43
2019-03-25T04:13:33.807Z,36.87
2019-03-25T04:16:03.697Z,37.17
2019-03-25T04:18:33.338Z,37.50
2019-03-25T04:21:03.089Z,36.77
2019-03-25T04:23:32.699Z,37.77
2019-03-25T04:26:02.617Z,36.47
2019-03-25T04:28:32.298Z,37.37
2019-03-25T04:31:02.081Z,37.67
2019-03-25T04:33:31.732Z,37.30
2019-03-25T04:36:01.340Z,37.57
2019-03-25T04:38:31.002Z,37.23
2019-03-25T04:41:00.655Z,36.83
2019-03-25T04:43:31.466Z,36.70
2019-03-25T04:46:01.195Z,36.50
2019-03-25T04:48:32.479Z,36.77
2019-03-25T04:51:02.160Z,38.27
2019-03-25T04:53:31.854Z,37.40
2019-03-25T04:56:03.113Z,37.37
2019-03-25T04:58:32.821Z,37.60
2019-03-25T05:01:02.552Z,37.60
2019-03-25T05:03:32.240Z,37.13
2019-03-25T05:06:01.972Z,37.20
2019-03-25T05:08:32.034Z,38.10
2019-03-25T05:11:03.697Z,36.90
2019-03-25T05:13:33.321Z,38.47
2019-03-25T05:16:03.095Z,36.40
2019-03-25T05:18:32.766Z,36.50
2019-03-25T05:21:02.439Z,37.40
2019-03-25T05:23:32.102Z,37.10
2019-03-25T05:26:01.760Z,36.30
2019-03-25T05:28:31.431Z,37.57
2019-03-25T05:31:02.729Z,37.37
2019-03-25T05:33:32.439Z,37.23
2019-03-25T05:36:02.208Z,36.37
2019-03-25T05:38:32.149Z,36.17
2019-03-25T05:41:01.801Z,36.67
2019-03-25T05:43:31.458Z,37.10
2019-03-25T05:46:01.165Z,36.70
2019-03-25T05:48:32.156Z,39.07
2019-03-25T05:51:01.866Z,38.20
2019-03-25T05:53:31.532Z,38.30
2019-03-25T05:56:01.266Z,37.60
2019-03-25T05:58:30.946Z,37.00
2019-03-25T06:01:00.675Z,37.63
2019-03-25T06:03:30.323Z,38.23
2019-03-25T06:06:00.008Z,37.67
2019-03-25T06:08:29.671Z,38.10
2019-03-25T06:10:59.376Z,36.70
2019-03-25T06:13:29.147Z,37.67
2019-03-25T06:15:58.993Z,38.83
2019-03-25T06:18:28.666Z,38.20
2019-03-25T06:20:58.335Z,37.17
2019-03-25T06:23:29.451Z,36.63
2019-03-25T06:25:59.117Z,37.93
2019-03-25T06:28:28.946Z,37.33
2019-03-25T06:31:00.552Z,37.43
2019-03-25T06:33:30.234Z,37.43
2019-03-25T06:35:59.884Z,37.83
2019-03-25T06:38:29.907Z,38.27
2019-03-25T06:40:59.640Z,37.53
2019-03-25T06:43:29.291Z,38.23
2019-03-25T06:45:58.977Z,38.00
2019-03-25T06:48:28.684Z,38.47
2019-03-25T06:50:58.486Z,37.97
2019-03-25T06:53:28.449Z,37.53
2019-03-25T06:55:58.443Z,38.20
2019-03-25T06:58:28.083Z,40.63
2019-03-25T07:00:58.560Z,37.80
2019-03-25T07:03:29.840Z,37.97
2019-03-25T07:06:01.086Z,38.23
2019-03-25T07:08:30.770Z,37.70
2019-03-25T07:11:00.684Z,37.80
2019-03-25T07:13:30.648Z,38.13
2019-03-25T07:21:53.906Z,37.53
2019-03-25T07:24:25.398Z,37.70
2019-03-25T07:26:56.059Z,38.77
2019-03-25T07:29:27.208Z,38.77
2019-03-25T07:31:56.982Z,38.40
2019-03-25T07:34:26.634Z,37.23
2019-03-25T07:36:56.280Z,38.27
2019-03-25T07:39:27.491Z,39.23
2019-03-25T07:41:57.162Z,38.33
2019-03-25T07:44:26.807Z,37.23
2019-03-25T07:46:56.492Z,37.70
2019-03-25T07:49:26.144Z,38.53
2019-03-25T07:51:55.815Z,38.73
2019-03-25T07:54:25.539Z,37.73
2019-03-25T07:56:55.216Z,38.93
2019-03-25T07:59:27.069Z,38.00
2019-03-25T08:01:56.845Z,38.07
2019-03-25T08:04:26.632Z,37.70
2019-03-25T08:06:57.928Z,38.33
2019-03-25T08:09:27.594Z,38.27
2019-03-25T08:11:58.304Z,39.03
2019-03-25T08:14:27.970Z,37.73
2019-03-25T08:16:57.660Z,39.03
2019-03-25T08:19:27.427Z,38.20
2019-03-25T08:21:57.086Z,38.30
2019-03-25T08:24:26.832Z,39.37
2019-03-25T08:26:56.632Z,38.00
2019-03-25T08:29:26.277Z,37.57
2019-03-25T08:31:55.997Z,36.83
2019-03-25T08:34:25.668Z,37.90
2019-03-25T08:36:55.339Z,37.97
2019-03-25T08:39:25.028Z,37.67
2019-03-25T08:41:54.706Z,38.10
2019-03-25T08:44:25.833Z,38.43
2019-03-25T08:46:56.525Z,37.80
2019-03-25T08:49:26.173Z,37.47
2019-03-25T08:51:55.940Z,38.30
2019-03-25T08:54:25.651Z,38.37
2019-03-25T08:56:55.303Z,38.10
2019-03-25T08:59:24.974Z,38.40
2019-03-25T09:01:54.916Z,37.60
2019-03-25T09:04:24.665Z,38.50
2019-03-25T09:06:54.430Z,37.53
2019-03-25T09:09:24.140Z,38.07
2019-03-25T09:11:53.789Z,38.43
2019-03-25T09:14:23.459Z,38.03
2019-03-25T09:16:53.142Z,38.10
2019-03-25T09:19:24.446Z,38.47
2019-03-25T09:21:55.760Z,37.97
2019-03-25T09:24:27.860Z,38.10
2019-03-25T09:26:58.411Z,38.10
2019-03-25T09:29:28.096Z,37.33
2019-03-25T09:31:57.797Z,37.80
2019-03-25T09:34:27.451Z,38.53
2019-03-25T09:36:57.193Z,38.47
2019-03-25T09:39:26.890Z,37.87
2019-03-25T09:41:56.559Z,39.23
2019-03-25T09:44:26.259Z,37.93
2019-03-25T09:46:56.036Z,37.40
2019-03-25T09:49:26.143Z,37.33
2019-03-25T09:52:02.429Z,37.80
2019-03-25T09:54:32.089Z,38.20
2019-03-25T09:57:01.766Z,38.97
2019-03-25T09:59:31.762Z,37.73
2019-03-25T10:02:02.766Z,37.90
2019-03-25T10:04:32.447Z,38.33
2019-03-25T10:07:04.167Z,37.93
2019-03-25T10:09:33.839Z,37.63
2019-03-25T10:12:03.575Z,37.60
2019-03-25T10:14:33.274Z,37.90
2019-03-25T10:17:02.945Z,37.57
2019-03-25T10:19:32.618Z,38.07
2019-03-25T10:22:02.330Z,37.70
2019-03-25T10:24:32.093Z,37.90
2019-03-25T10:27:01.858Z,38.03
2019-03-25T10:29:31.596Z,37.83
2019-03-25T10:32:01.261Z,38.03
2019-03-25T10:34:30.971Z,37.40
2019-03-25T10:37:00.704Z,38.70
2019-03-25T10:39:32.658Z,37.60
2019-03-25T10:42:03.516Z,38.13
2019-03-25T10:44:33.319Z,38.03
2019-03-25T10:47:04.400Z,38.20
2019-03-25T10:49:34.096Z,38.47
2019-03-25T10:52:04.146Z,39.00
2019-03-25T10:54:33.966Z,38.33
2019-03-25T10:57:04.429Z,38.40
2019-03-25T10:59:34.113Z,38.40
2019-03-25T11:02:03.966Z,38.17
2019-03-25T11:04:34.935Z,38.90
2019-03-25T11:07:04.733Z,38.30
2019-03-25T11:09:34.370Z,39.17
2019-03-25T11:12:04.126Z,38.57
2019-03-25T11:14:33.869Z,38.97
2019-03-25T11:17:03.529Z,38.90
2019-03-25T11:19:33.850Z,38.57
2019-03-25T11:22:03.836Z,38.00
2019-03-25T11:24:33.508Z,38.57
2019-03-25T11:27:03.582Z,38.60
2019-03-25T11:29:33.394Z,38.73
2019-03-25T11:32:03.070Z,38.67
2019-03-25T11:34:33.437Z,38.67
2019-03-25T11:37:03.396Z,38.67
2019-03-25T11:39:33.055Z,38.97
2019-03-25T11:42:02.767Z,38.70
2019-03-25T11:44:32.446Z,38.40
2019-03-25T11:47:02.127Z,39.53
2019-03-25T11:49:31.963Z,38.60
2019-03-25T11:52:03.026Z,38.83
2019-03-25T11:54:32.702Z,38.50
2019-03-25T11:57:02.401Z,38.83
2019-03-25T11:59:32.081Z,38.63
2019-03-25T12:02:01.769Z,39.30
2019-03-25T12:04:31.463Z,38.47
2019-03-25T12:07:01.118Z,38.23
2019-03-25T12:09:30.782Z,38.60
2019-03-25T12:12:00.472Z,38.53
2019-03-25T12:14:30.140Z,38.23
2019-03-25T12:17:01.901Z,38.67
2019-03-25T12:19:31.597Z,39.10
2019-03-25T12:22:02.650Z,39.23
2019-03-25T12:24:32.321Z,39.17
2019-03-25T12:27:02.005Z,39.97
2019-03-25T12:29:31.683Z,39.00
2019-03-25T12:32:01.346Z,39.33
2019-03-25T12:34:31.193Z,38.80
2019-03-25T12:37:01.197Z,39.17
2019-03-25T12:39:31.076Z,38.50
2019-03-25T12:42:00.789Z,38.83
2019-03-25T12:44:30.464Z,39.47
2019-03-25T12:47:00.252Z,38.93
2019-03-25T12:49:29.950Z,39.10
2019-03-25T12:51:59.600Z,38.77
2019-03-25T12:54:30.981Z,38.83
2019-03-25T12:57:00.666Z,38.53
2019-03-25T12:59:40.676Z,39.20
2019-03-25T13:02:01.777Z,39.57
2019-03-25T13:04:31.549Z,38.90
2019-03-25T13:07:02.709Z,39.63
2019-03-25T13:09:32.399Z,39.23
2019-03-25T13:12:02.163Z,39.53
2019-03-25T13:14:31.860Z,39.27
2019-03-25T13:17:01.594Z,39.67
2019-03-25T13:19:31.323Z,40.97
2019-03-25T13:22:00.994Z,40.33
2019-03-25T13:24:30.663Z,39.07
2019-03-25T13:27:00.485Z,38.97
2019-03-25T13:29:30.224Z,39.03
2019-03-25T13:31:59.907Z,38.90
2019-03-25T13:34:48.867Z,38.97
2019-03-25T13:37:18.546Z,39.10
2019-03-25T13:39:48.205Z,39.13
2019-03-25T13:42:17.898Z,39.43
2019-03-25T13:44:47.618Z,39.00
2019-03-25T13:47:17.315Z,39.27
2019-03-25T13:49:47.016Z,39.07
2019-03-25T13:52:16.699Z,39.43
2019-03-25T13:54:46.289Z,38.70
2019-03-25T13:57:16.130Z,39.20
2019-03-25T13:59:46.792Z,39.77
2019-03-25T14:02:16.519Z,39.30
2019-03-25T14:04:46.214Z,39.47
2019-03-25T14:07:15.891Z,40.27
2019-03-25T14:09:45.938Z,40.57
2019-03-25T14:12:15.692Z,39.70
2019-03-25T14:14:45.380Z,39.30
2019-03-25T14:17:15.053Z,38.93
2019-03-25T14:19:44.745Z,40.73
2019-03-25T14:22:14.495Z,39.80
2019-03-25T14:24:44.165Z,39.57
2019-03-25T14:27:13.881Z,39.90
2019-03-25T14:29:43.527Z,39.60
2019-03-25T14:32:32.663Z,39.80
2019-03-25T14:35:02.335Z,39.70
2019-03-25T14:37:32.000Z,40.73
2019-03-25T14:40:01.851Z,39.33
2019-03-25T14:42:32.974Z,39.80
2019-03-25T14:45:02.703Z,40.33
2019-03-25T14:47:32.405Z,39.93
2019-03-25T14:50:09.075Z,40.30
2019-03-25T14:52:38.779Z,39.83
2019-03-25T14:55:09.255Z,40.00
2019-03-25T14:57:38.978Z,40.87
2019-03-25T15:00:09.677Z,40.13
2019-03-25T15:02:39.371Z,40.90
2019-03-25T15:05:11.715Z,41.83
2019-03-25T15:07:41.472Z,41.93
2019-03-25T15:10:13.156Z,42.00
2019-03-25T15:12:42.843Z,41.50
2019-03-25T15:15:13.095Z,42.20
2019-03-25T15:18:02.382Z,42.17
2019-03-25T15:20:35.633Z,42.47
2019-03-25T15:23:05.980Z,43.20
2019-03-25T15:25:35.651Z,42.77
2019-03-25T15:28:05.348Z,42.83
2019-03-25T15:30:36.249Z,42.73
2019-03-25T15:33:06.544Z,43.67
2019-03-25T15:35:36.237Z,43.33
2019-03-25T15:38:05.934Z,43.00
2019-03-25T15:40:35.804Z,43.67
2019-03-25T15:43:05.750Z,43.70
2019-03-25T15:45:35.422Z,44.37
2019-03-25T15:48:05.399Z,44.60
2019-03-25T15:50:35.182Z,44.30
2019-03-25T15:53:05.236Z,44.63
2019-03-25T15:55:34.913Z,43.20
2019-03-25T15:58:04.601Z,43.60
2019-03-25T16:00:34.364Z,43.87
2019-03-25T16:03:04.288Z,44.27
2019-03-25T16:05:33.970Z,44.60
2019-03-25T16:08:03.649Z,43.60
2019-03-25T16:10:33.315Z,43.53
2019-03-25T16:13:03.057Z,44.37
2019-03-25T16:15:41.724Z,44.20
2019-03-25T16:18:17.632Z,44.17
2019-03-25T16:20:50.567Z,43.70
2019-03-25T16:23:20.294Z,44.03
2019-03-25T16:25:49.986Z,44.73
2019-03-25T16:28:19.707Z,44.13
2019-03-25T16:30:58.321Z,43.30
2019-03-25T16:33:20.911Z,43.67
2019-03-25T16:35:50.690Z,44.83
2019-03-25T16:38:22.442Z,44.20
2019-03-25T16:40:52.151Z,44.13
2019-03-25T16:43:21.891Z,43.67
2019-03-25T16:45:51.623Z,44.10
2019-03-25T16:48:21.382Z,43.83
2019-03-25T16:50:51.028Z,43.40
2019-03-25T16:53:20.773Z,42.93
2019-03-25T16:55:55.281Z,43.30
2019-03-25T16:58:26.357Z,42.77
2019-03-25T17:00:56.090Z,43.27
2019-03-25T17:03:25.856Z,42.90
2019-03-25T17:05:55.506Z,42.80
2019-03-25T17:08:25.333Z,42.53
2019-03-25T17:10:56.681Z,42.63
2019-03-25T17:13:26.490Z,43.13
2019-03-25T17:15:56.156Z,43.40
2019-03-25T17:18:25.849Z,42.30
2019-03-25T17:20:55.507Z,42.60
2019-03-25T17:23:25.190Z,42.90
2019-03-25T17:26:14.149Z,42.80
2019-03-25T17:28:43.841Z,42.13
2019-03-25T17:31:20.920Z,42.47
2019-03-25T17:33:46.108Z,42.50
2019-03-25T17:36:15.798Z,42.50
2019-03-25T17:38:45.473Z,42.60
2019-03-25T17:41:15.260Z,42.20
2019-03-25T17:43:44.912Z,42.33
2019-03-25T17:46:20.572Z,42.30
2019-03-25T17:48:50.256Z,42.50
2019-03-25T17:51:19.951Z,42.90
2019-03-25T17:53:51.029Z,43.40
2019-03-25T17:56:23.411Z,41.70
2019-03-25T17:58:53.558Z,42.57
2019-03-25T18:01:32.075Z,41.87
2019-03-25T18:03:56.558Z,41.83
2019-03-25T18:06:27.665Z,41.30
2019-03-25T18:08:57.329Z,41.40
2019-03-25T18:11:29.361Z,41.10
2019-03-25T18:14:00.981Z,42.20
2019-03-25T18:16:32.220Z,41.40
2019-03-25T18:19:01.888Z,39.87
2019-03-25T18:21:32.864Z,40.70
2019-03-25T18:24:02.557Z,40.60
2019-03-25T18:26:32.221Z,40.77
2019-03-25T18:29:01.926Z,41.67
2019-03-25T18:31:42.416Z,40.93
2019-03-25T18:34:03.444Z,41.43
2019-03-25T18:36:33.139Z,41.60
2019-03-25T18:39:02.814Z,41.37
2019-03-25T18:41:33.791Z,40.10
2019-03-25T18:44:03.546Z,40.10
2019-03-25T18:46:33.488Z,40.80
2019-03-25T18:49:03.438Z,40.53
2019-03-25T18:51:36.073Z,40.20
2019-03-25T18:54:06.111Z,39.90
2019-03-25T18:56:35.802Z,39.20
2019-03-25T18:59:05.552Z,38.53
2019-03-25T19:01:35.414Z,39.77
2019-03-25T19:04:05.375Z,39.33
2019-03-25T19:06:36.632Z,41.43
2019-03-25T19:09:08.377Z,39.97
2019-03-25T19:11:38.066Z,39.60
2019-03-25T19:14:09.401Z,40.77
2019-03-25T19:16:39.102Z,39.83
2019-03-25T19:19:11.822Z,38.93
2019-03-25T19:21:41.571Z,39.43
2019-03-25T19:24:11.261Z,39.17
2019-03-25T19:26:40.938Z,39.63
2019-03-25T19:29:10.643Z,39.57
2019-03-25T19:31:40.302Z,39.23
2019-03-25T19:34:09.936Z,39.20
2019-03-25T19:36:39.648Z,38.07
2019-03-25T19:39:09.460Z,38.63
2019-03-25T19:41:41.937Z,39.17
2019-03-25T19:44:11.761Z,39.30
2019-03-25T19:46:41.461Z,38.63
2019-03-25T19:49:11.120Z,39.40
2019-03-25T19:51:40.954Z,39.10
2019-03-25T19:54:10.639Z,39.10
2019-03-25T19:56:41.397Z,39.47
2019-03-25T19:59:11.717Z,39.00
2019-03-25T20:01:41.575Z,40.17
2019-03-25T20:04:11.278Z,38.90
2019-03-25T20:06:40.984Z,39.40
2019-03-25T20:09:10.840Z,39.20
2019-03-25T20:11:40.622Z,38.50
2019-03-25T20:14:11.782Z,39.60
2019-03-25T20:16:41.462Z,38.37
2019-03-25T20:19:11.138Z,39.30
2019-03-25T20:21:40.991Z,40.17
2019-03-25T20:24:10.676Z,38.63
2019-03-25T20:26:40.408Z,38.87
2019-03-25T20:29:11.634Z,37.93
2019-03-25T20:31:41.384Z,37.70
2019-03-25T20:34:15.568Z,37.67
2019-03-25T20:36:48.073Z,37.90
2019-03-25T20:39:18.010Z,37.53
2019-03-25T20:41:52.200Z,38.63
2019-03-25T20:44:21.929Z,39.07
2019-03-25T20:46:51.683Z,38.30
2019-03-25T20:49:23.223Z,39.20
2019-03-25T20:51:54.191Z,39.13
2019-03-25T20:54:25.488Z,38.53
2019-03-25T20:56:55.123Z,38.23
2019-03-25T20:59:24.791Z,39.37
2019-03-25T21:01:56.025Z,39.27
2019-03-25T21:04:28.798Z,38.60
2019-03-25T21:06:58.588Z,38.80
2019-03-25T21:09:28.308Z,39.23
2019-03-25T21:11:58.122Z,38.50
2019-03-25T21:14:30.285Z,37.90
2019-03-25T21:16:59.920Z,37.33
2019-03-25T21:19:30.768Z,38.77
2019-03-25T21:22:00.436Z,37.80
2019-03-25T21:24:30.737Z,38.53
2019-03-25T21:27:00.459Z,37.47
2019-03-25T21:29:30.188Z,38.03
2019-03-25T21:31:59.868Z,38.27
2019-03-25T21:34:29.491Z,37.97
2019-03-25T21:36:59.222Z,38.60
2019-03-25T21:39:28.897Z,38.37
2019-03-25T21:41:58.706Z,38.97
2019-03-25T21:44:30.376Z,37.47
2019-03-25T21:47:01.693Z,37.67
2019-03-25T21:49:32.873Z,38.10
2019-03-25T21:52:03.273Z,38.90
2019-03-25T21:54:32.968Z,38.20
2019-03-25T21:57:02.718Z,37.90
2019-03-25T21:59:32.483Z,38.50
2019-03-25T22:02:03.629Z,38.33
2019-03-25T22:04:33.325Z,38.13
2019-03-25T22:07:03.062Z,38.47
2019-03-25T22:09:32.755Z,38.23
2019-03-25T22:12:02.399Z,38.40
2019-03-25T22:14:33.514Z,37.57
2019-03-25T22:17:03.184Z,37.53
2019-03-25T22:19:32.850Z,37.20
2019-03-25T22:22:02.658Z,37.50
2019-03-25T22:24:32.405Z,37.87
2019-03-25T22:27:02.152Z,37.77
2019-03-25T22:29:31.846Z,38.63
2019-03-25T22:32:01.861Z,39.23
2019-03-25T22:34:34.314Z,38.33
2019-03-25T22:37:04.038Z,38.87
2019-03-25T22:39:35.269Z,38.33
2019-03-25T22:42:04.922Z,38.80
2019-03-25T22:44:34.613Z,37.53
2019-03-25T22:47:05.441Z,37.80
2019-03-25T22:49:36.833Z,37.00
2019-03-25T22:52:07.990Z,37.10
2019-03-25T22:54:37.651Z,37.77
2019-03-25T22:57:09.557Z,37.27
2019-03-25T22:59:40.918Z,37.43
2019-03-25T23:02:10.640Z,37.47
2019-03-25T23:04:40.381Z,38.10
2019-03-25T23:07:10.059Z,37.63
2019-03-25T23:09:39.705Z,37.60
2019-03-25T23:12:09.444Z,37.40
2019-03-25T23:14:39.127Z,37.57
2019-03-25T23:17:09.447Z,38.47
2019-03-25T23:19:39.089Z,37.83
2019-03-25T23:22:08.773Z,37.60
2019-03-25T23:24:38.433Z,37.40
2019-03-25T23:27:08.085Z,38.07
2019-03-25T23:29:37.762Z,37.27
2019-03-25T23:32:07.439Z,37.53
2019-03-25T23:34:39.926Z,37.33
2019-03-25T23:37:09.621Z,37.60
2019-03-25T23:39:39.577Z,37.97
2019-03-25T23:42:09.230Z,37.20
2019-03-25T23:44:38.933Z,38.23
2019-03-25T23:47:08.596Z,38.13
2019-03-25T23:49:38.269Z,37.97
2019-03-25T23:52:08.016Z,37.60
2019-03-25T23:54:37.747Z,37.07
2019-03-25T23:57:07.479Z,38.10
2019-03-25T23:59:37.222Z,38.03
